Westville, FL (32464)

9:13 AM CST on January 30, 2015 (GMT -0600)
Bob's Backyard Weather | Change Station
CLOSE
Current Station
Personal Weather Station
Location: Bonifay, FL
Elevation: 131 ft
Nearby Weather Stations

Elev 131 ft 30.80 °N, 85.70 °W | Updated 9 minutes ago

Clear
Clear
49.0 °F
Feels Like 49 °F
N
2.0
Wind Variable Wind from NW
Gusts 10.0 mph

Today
High -- | Low -- °F
--% Chance of Precip.
Yesterday
High -- | Low -- °F
Precip. -- in
6:36 AM 5:17 PM
Waxing Gibbous, 83% visible
Pressure 30.29 in
Visibility 10.0 miles
Clouds Clear
Windchill 49 °F
Dew Point 39 °F
Humidity 69%
Rainfall 0.00 in
Snow Depth Not available.
UV 2 out of 12
Pollen 6.70 out of 12
Air Quality Not available.
Flu Activity Not available.
METAR K1J0 301458Z AUTO 36016G21KT 10SM CLR 09/02 A3034 RMK AO2 SLP257 T00940022 51027

More Conditions Fewer Conditions

Pressure 30.29 in
Visibility 10.0 miles
Clouds Clear
Windchill 49 °F
Dew Point 39 °F
Humidity 69%
Rainfall 0.00 in
Snow Depth Not available.
UV 2 out of 12
Pollen 6.70 out of 12
Air Quality Not available.
Flu Activity Not available.
METAR K1J0 301458Z AUTO 36016G21KT 10SM CLR 09/02 A3034 RMK AO2 SLP257 T00940022 51027

More Conditions Fewer Conditions

10-Day Weather Forecast

Almanac

Astronomy

Jan. 30, 2015 Rise Set
Actual Time
Civil Twilight
Nautical Twilight
Astronomical Twilight
Moon
Length of Visible Light
Length of Day
Tomorrow will be .
, % of the Moon is Illuminated

Today's Extremes

State Highs State Lows

Community

WunderPhotos

Upload Photos

1,791,784 photos uploaded!

WunderBlogs® & News

Nearby

Air Quality

  Air Quality AQ Index Pollutant
Not available.

Snow Depth

Station Depth Elevation

Earthquake Activity

City Distance Mag. Time & Date
Minimum magnitude displayed is 2.5.

Coastal Water Temperatures

Place Temperature

Nearby Weather Stations